createdAt,value
2022-10-25T00:01:27.198Z,97801.84
2022-10-25T00:03:54.426Z,97808.41
2022-10-25T00:06:22.755Z,97806.19
2022-10-25T00:08:50.695Z,97807.28
2022-10-25T00:11:24.837Z,97804.06
2022-10-25T00:13:54.478Z,97805.41
2022-10-25T00:16:29.219Z,97803.44
2022-10-25T00:18:56.148Z,97808.22
2022-10-25T00:21:23.300Z,97807.03
2022-10-25T00:23:51.474Z,97813.22
2022-10-25T00:26:18.877Z,97815.94
2022-10-25T00:28:46.089Z,97809.22
2022-10-25T00:31:16.271Z,97806.47
2022-10-25T00:33:44.328Z,97815.25
2022-10-25T00:36:18.331Z,97804.13
2022-10-25T00:38:46.134Z,97815.63
2022-10-25T00:41:20.133Z,97814.09
2022-10-25T00:43:50.870Z,97818.72
2022-10-25T00:46:30.393Z,97825.16
2022-10-25T00:49:12.691Z,97823.75
2022-10-25T00:51:57.595Z,97820.94
2022-10-25T00:54:31.877Z,97811.72
2022-10-25T00:57:04.422Z,97827.56
2022-10-25T00:59:32.318Z,97828.78
2022-10-25T01:01:59.277Z,97829.97
2022-10-25T01:04:30.706Z,97830.44
2022-10-25T01:06:57.690Z,97828.47
2022-10-25T01:09:29.878Z,97831.53
2022-10-25T01:11:56.960Z,97820.81
2022-10-25T01:14:24.335Z,97823.66
2022-10-25T01:17:27.851Z,97826.47
2022-10-25T01:20:18.271Z,97824.34
2022-10-25T01:23:00.766Z,97820.19
2022-10-25T01:26:15.611Z,97822.94
2022-10-25T01:29:07.979Z,97826.69
2022-10-25T01:31:50.673Z,97824.22
2022-10-25T01:34:38.547Z,97820.09
2022-10-25T01:37:29.888Z,97821.28
2022-10-25T01:40:24.984Z,97824.94
2022-10-25T01:43:06.319Z,97823.63
2022-10-25T01:46:11.770Z,97823.28
2022-10-25T01:48:50.085Z,97829.53
2022-10-25T01:51:18.643Z,97829.09
2022-10-25T01:53:51.911Z,97821.63
2022-10-25T01:56:28.315Z,97825.41
2022-10-25T01:59:19.510Z,97824.81
2022-10-25T02:02:03.957Z,97828.38
2022-10-25T02:04:55.398Z,97826.00
2022-10-25T02:07:46.035Z,97828.00
2022-10-25T02:10:28.675Z,97830.13
2022-10-25T02:13:28.169Z,97835.69
2022-10-25T02:16:07.565Z,97836.84
2022-10-25T02:18:39.263Z,97840.63
2022-10-25T02:21:06.802Z,97837.44
2022-10-25T02:23:37.859Z,97841.09
2022-10-25T02:26:08.746Z,97835.28
2022-10-25T02:28:40.338Z,97828.78
2022-10-25T02:31:12.673Z,97837.66
2022-10-25T02:33:39.501Z,97830.88
2022-10-25T02:36:20.008Z,97835.25
2022-10-25T02:38:49.550Z,97826.03
2022-10-25T02:41:17.290Z,97814.56
2022-10-25T02:43:44.421Z,97822.63
2022-10-25T02:46:18.451Z,97832.31
2022-10-25T02:48:45.940Z,97830.88
2022-10-25T02:51:13.490Z,97839.84
2022-10-25T02:53:40.453Z,97841.84
2022-10-25T02:56:20.455Z,97844.88
2022-10-25T02:58:49.616Z,97845.22
2022-10-25T03:01:19.397Z,97847.22
2022-10-25T03:03:46.380Z,97848.28
2022-10-25T03:06:14.018Z,97851.09
2022-10-25T03:08:42.676Z,97854.63
2022-10-25T03:11:11.549Z,97860.75
2022-10-25T03:13:38.550Z,97859.09
2022-10-25T03:16:06.071Z,97872.09
2022-10-25T03:18:33.255Z,97871.38
2022-10-25T03:21:02.359Z,97867.13
2022-10-25T03:23:30.176Z,97867.25
2022-10-25T03:25:59.482Z,97865.59
2022-10-25T03:28:28.557Z,97869.84
2022-10-25T03:30:57.072Z,97854.84
2022-10-25T03:33:24.847Z,97852.84
2022-10-25T03:35:53.584Z,97864.06
2022-10-25T03:38:20.967Z,97874.47
2022-10-25T03:40:47.750Z,97870.44
2022-10-25T03:43:14.616Z,97875.16
2022-10-25T03:45:41.413Z,97878.59
2022-10-25T03:48:08.317Z,97875.34
2022-10-25T03:50:36.073Z,97870.38
2022-10-25T03:53:05.096Z,97875.59
2022-10-25T03:55:33.951Z,97874.88
2022-10-25T03:58:00.848Z,97881.00
2022-10-25T04:00:28.219Z,97884.53
2022-10-25T04:03:00.934Z,97879.34
2022-10-25T04:05:31.688Z,97873.63
2022-10-25T04:07:59.474Z,97872.88
2022-10-25T04:10:26.958Z,97878.19
2022-10-25T04:12:55.008Z,97880.19
2022-10-25T04:15:23.623Z,97889.75
2022-10-25T04:17:52.506Z,97886.44
2022-10-25T04:20:21.343Z,97878.03
2022-10-25T04:22:57.876Z,97877.31
2022-10-25T04:25:27.178Z,97886.03
2022-10-25T04:27:54.777Z,97883.53
2022-10-25T04:30:21.747Z,97876.81
2022-10-25T04:32:48.783Z,97889.78
2022-10-25T04:35:16.185Z,97889.78
2022-10-25T04:37:43.014Z,97884.59
2022-10-25T04:40:10.918Z,97880.34
2022-10-25T04:42:37.636Z,97891.34
2022-10-25T04:45:04.794Z,97881.66
2022-10-25T04:47:32.614Z,97885.09
2022-10-25T04:49:59.809Z,97887.50
2022-10-25T04:52:28.860Z,97889.75
2022-10-25T04:54:56.311Z,97894.84
2022-10-25T04:57:23.163Z,97897.44
2022-10-25T04:59:49.964Z,97902.63
2022-10-25T05:02:16.674Z,97899.09
2022-10-25T05:04:43.430Z,97900.75
2022-10-25T05:07:10.125Z,97897.09
2022-10-25T05:09:36.860Z,97889.81
2022-10-25T05:12:03.876Z,97896.78
2022-10-25T05:14:30.561Z,97902.63
2022-10-25T05:16:57.249Z,97896.38
2022-10-25T05:19:23.980Z,97906.53
2022-10-25T05:21:50.717Z,97901.25
2022-10-25T05:24:17.594Z,97909.88
2022-10-25T05:26:44.321Z,97910.81
2022-10-25T05:29:12.852Z,97916.91
2022-10-25T05:31:41.832Z,97911.94
2022-10-25T05:34:10.572Z,97920.69
2022-10-25T05:36:37.274Z,97920.69
2022-10-25T05:39:04.009Z,97937.94
2022-10-25T05:41:33.393Z,97924.00
2022-10-25T05:44:03.087Z,97921.41
2022-10-25T05:46:29.888Z,97927.53
2022-10-25T05:48:59.375Z,97936.03
2022-10-25T05:51:37.238Z,97938.34
2022-10-25T05:54:09.608Z,97938.72
2022-10-25T05:56:37.890Z,97937.47
2022-10-25T05:59:11.244Z,97946.56
2022-10-25T06:01:41.379Z,97948.75
2022-10-25T06:04:09.637Z,97950.06
2022-10-25T06:06:38.532Z,97952.53
2022-10-25T06:09:06.480Z,97947.88
2022-10-25T06:11:34.536Z,97953.31
2022-10-25T06:14:01.357Z,97961.00
2022-10-25T06:16:28.380Z,97962.34
2022-10-25T06:18:55.157Z,97969.69
2022-10-25T06:21:28.064Z,97970.06
2022-10-25T06:23:55.972Z,97975.75
2022-10-25T06:26:27.423Z,97968.44
2022-10-25T06:28:58.011Z,97972.59
2022-10-25T06:31:25.940Z,97961.03
2022-10-25T06:33:53.093Z,97968.47
2022-10-25T06:36:23.410Z,97970.66
2022-10-25T06:38:50.984Z,97971.22
2022-10-25T06:41:21.465Z,97973.59
2022-10-25T06:43:49.226Z,97977.75
2022-10-25T06:46:26.551Z,97982.63
2022-10-25T06:48:56.032Z,97984.03
2022-10-25T06:51:24.238Z,97988.94
2022-10-25T06:53:58.954Z,97989.28
2022-10-25T06:56:27.652Z,97997.47
2022-10-25T06:58:56.053Z,98002.91
2022-10-25T07:01:25.126Z,98000.69
2022-10-25T07:03:54.053Z,98002.84
2022-10-25T07:06:26.159Z,97988.56
2022-10-25T07:09:01.251Z,97996.72
2022-10-25T07:11:31.976Z,97991.97
2022-10-25T07:14:00.311Z,97999.31
2022-10-25T07:16:28.642Z,97995.78
2022-10-25T07:19:04.015Z,97998.75
2022-10-25T07:21:32.582Z,98012.56
2022-10-25T07:24:00.432Z,98002.63
2022-10-25T07:26:34.548Z,98002.59
2022-10-25T07:29:03.360Z,98004.22
2022-10-25T07:31:33.100Z,98009.09
2022-10-25T07:34:02.486Z,98024.50
2022-10-25T07:36:29.490Z,98017.00
2022-10-25T07:38:56.975Z,98016.13
2022-10-25T07:41:25.016Z,98029.44
2022-10-25T07:43:51.959Z,98022.78
2022-10-25T07:46:21.770Z,98023.50
2022-10-25T07:48:48.477Z,98025.69
2022-10-25T07:51:17.284Z,98026.50
2022-10-25T07:53:44.260Z,98021.66
2022-10-25T07:56:20.456Z,98028.44
2022-10-25T07:58:50.857Z,98033.16
2022-10-25T08:01:28.835Z,98036.38
2022-10-25T08:03:56.722Z,98034.19
2022-10-25T08:06:25.326Z,98029.81
2022-10-25T08:08:52.742Z,98027.91
2022-10-25T08:11:19.834Z,98031.75
2022-10-25T08:13:50.211Z,98019.94
2022-10-25T08:16:17.246Z,98027.53
2022-10-25T08:18:44.290Z,98026.56
2022-10-25T08:21:11.234Z,98024.31
2022-10-25T08:23:38.054Z,98025.38
2022-10-25T08:26:04.771Z,98028.53
2022-10-25T08:28:31.808Z,98027.97
2022-10-25T08:31:00.540Z,98024.19
2022-10-25T08:33:27.421Z,98032.47
2022-10-25T08:35:54.107Z,98038.50
2022-10-25T08:38:20.826Z,98033.88
2022-10-25T08:41:09.974Z,98040.72
2022-10-25T08:44:08.560Z,98034.97
2022-10-25T08:46:52.735Z,98044.19
2022-10-25T08:49:46.580Z,98044.31
2022-10-25T08:52:26.394Z,98041.66
2022-10-25T08:54:59.298Z,98030.47
2022-10-25T08:57:34.570Z,98035.53
2022-10-25T09:00:10.464Z,98038.69
2022-10-25T09:02:53.338Z,98029.97
2022-10-25T09:05:42.932Z,98030.50
2022-10-25T09:09:15.963Z,98043.16
2022-10-25T09:12:10.738Z,98039.66
2022-10-25T09:14:46.331Z,98044.41
2022-10-25T09:17:32.943Z,98039.16
2022-10-25T09:20:41.483Z,98024.31
2022-10-25T09:23:32.751Z,98032.44
2022-10-25T09:26:12.508Z,98025.34
2022-10-25T09:29:02.388Z,98041.53
2022-10-25T09:31:38.937Z,98037.06
2022-10-25T09:34:10.292Z,98038.38
2022-10-25T09:36:49.331Z,98039.84
2022-10-25T09:39:21.986Z,98032.91
2022-10-25T09:41:55.567Z,98040.63
2022-10-25T09:44:41.088Z,98037.41
2022-10-25T09:47:35.184Z,98037.19
2022-10-25T09:50:11.111Z,98053.19
2022-10-25T09:55:57.415Z,98042.53
2022-10-25T09:58:42.310Z,98038.38
2022-10-25T10:01:29.303Z,98040.41
2022-10-25T10:04:17.312Z,98048.53
2022-10-25T10:06:44.636Z,98041.16
2022-10-25T10:09:16.374Z,98050.06
2022-10-25T10:11:47.631Z,98047.34
2022-10-25T10:14:38.352Z,98043.22
2022-10-25T10:17:11.904Z,98041.03
2022-10-25T10:19:38.600Z,98043.28
2022-10-25T10:22:14.811Z,98051.59
2022-10-25T10:24:44.597Z,98037.97
2022-10-25T10:27:26.259Z,98041.97
2022-10-25T10:30:07.181Z,98034.09
2022-10-25T10:35:27.774Z,98028.34
2022-10-25T10:38:14.847Z,98036.88
2022-10-25T10:40:45.629Z,98029.47
2022-10-25T10:43:32.732Z,98030.28
2022-10-25T10:46:19.877Z,98026.84
2022-10-25T10:48:55.902Z,98034.81
2022-10-25T10:51:43.995Z,98024.28
2022-10-25T10:54:46.251Z,98019.84
2022-10-25T10:57:30.963Z,98021.50
2022-10-25T10:59:59.431Z,98020.81
2022-10-25T11:02:42.965Z,98018.47
2022-10-25T11:05:35.165Z,98018.50
2022-10-25T11:08:08.847Z,98015.66
2022-10-25T11:10:36.869Z,98005.91
2022-10-25T11:13:13.630Z,98013.72
2022-10-25T11:16:06.918Z,98010.41
2022-10-25T11:18:49.981Z,98012.88
2022-10-25T11:21:37.670Z,98003.00
2022-10-25T11:24:37.110Z,98003.13
2022-10-25T11:27:57.710Z,97994.59
2022-10-25T11:30:35.583Z,98003.09
2022-10-25T11:33:21.942Z,98013.97
2022-10-25T11:36:30.001Z,98001.91
2022-10-25T11:39:16.269Z,97991.06
2022-10-25T11:41:51.430Z,98000.66
2022-10-25T11:45:01.574Z,97987.50
2022-10-25T11:48:03.774Z,97999.63
2022-10-25T11:50:49.382Z,97992.59
2022-10-25T11:53:30.065Z,97989.47
2022-10-25T11:56:32.965Z,97984.38
2022-10-25T11:59:52.264Z,97989.00
2022-10-25T12:02:36.894Z,97986.50
2022-10-25T12:05:34.502Z,97992.75
2022-10-25T12:08:37.722Z,97985.53
2022-10-25T12:11:15.001Z,97996.47
2022-10-25T12:13:51.850Z,97991.00
2022-10-25T12:16:21.639Z,97995.25
2022-10-25T12:19:08.974Z,97986.06
2022-10-25T12:22:13.665Z,97981.34
2022-10-25T12:25:07.219Z,97982.75
2022-10-25T12:27:36.096Z,97978.19
2022-10-25T12:30:13.757Z,97983.69
2022-10-25T12:32:59.881Z,97979.75
2022-10-25T12:35:33.826Z,97986.16
2022-10-25T12:38:32.659Z,97986.09
2022-10-25T12:41:25.796Z,97990.09
2022-10-25T12:44:25.279Z,97984.13
2022-10-25T12:47:35.049Z,97985.56
2022-10-25T12:50:40.356Z,97974.91
2022-10-25T12:53:54.949Z,97976.63
2022-10-25T12:56:46.040Z,97979.88
2022-10-25T12:59:56.894Z,97977.75
2022-10-25T13:02:54.733Z,97970.31
2022-10-25T13:05:50.365Z,97972.16
2022-10-25T13:08:21.825Z,97977.03
2022-10-25T13:11:04.311Z,97973.13
2022-10-25T13:13:39.538Z,97963.81
2022-10-25T13:16:10.885Z,97966.03
2022-10-25T13:18:48.498Z,97954.94
2022-10-25T13:21:37.622Z,97955.84
2022-10-25T13:24:04.598Z,97953.59
2022-10-25T13:26:53.417Z,97957.13
2022-10-25T13:30:01.976Z,97957.09
2022-10-25T13:33:24.401Z,97957.56
2022-10-25T13:35:51.245Z,97958.00
2022-10-25T13:38:25.226Z,97953.38
2022-10-25T13:41:09.921Z,97963.22
2022-10-25T13:43:56.504Z,97968.31
2022-10-25T13:46:41.719Z,97965.66
2022-10-25T13:49:36.287Z,97964.22
2022-10-25T13:52:08.931Z,97964.22
2022-10-25T13:54:54.730Z,97958.38
2022-10-25T13:57:57.034Z,97957.94
2022-10-25T14:00:40.812Z,97949.91
2022-10-25T14:03:10.540Z,97934.47
2022-10-25T14:06:08.485Z,97945.34
2022-10-25T14:08:54.205Z,97938.72
2022-10-25T14:11:35.272Z,97938.06
2022-10-25T14:14:11.302Z,97932.31
2022-10-25T14:17:03.919Z,97940.06
2022-10-25T14:19:50.119Z,97938.78
2022-10-25T14:22:51.454Z,97923.00
2022-10-25T14:25:18.072Z,97935.97
2022-10-25T14:27:44.786Z,97927.03
2022-10-25T14:30:30.117Z,97924.84
2022-10-25T14:33:00.854Z,97914.44
2022-10-25T14:35:47.338Z,97914.66
2022-10-25T14:38:24.783Z,97917.19
2022-10-25T14:41:03.413Z,97918.88
2022-10-25T14:43:36.371Z,97914.91
2022-10-25T14:46:15.881Z,97904.16
2022-10-25T14:48:48.067Z,97904.06
2022-10-25T14:51:34.367Z,97907.88
2022-10-25T14:54:19.957Z,97908.03
2022-10-25T14:56:49.088Z,97912.41
2022-10-25T14:59:40.257Z,97908.19
2022-10-25T15:02:25.768Z,97906.94
2022-10-25T15:04:57.801Z,97901.41
2022-10-25T15:07:34.290Z,97906.03
2022-10-25T15:12:35.969Z,97898.34
2022-10-25T15:15:33.528Z,97901.16
2022-10-25T15:18:00.255Z,97903.44
2022-10-25T15:20:32.706Z,97898.16
2022-10-25T15:23:16.934Z,97897.94
2022-10-25T15:25:43.656Z,97906.00
2022-10-25T15:28:17.407Z,97911.72
2022-10-25T15:31:03.518Z,97907.53
2022-10-25T15:33:32.085Z,97906.13
2022-10-25T15:36:05.267Z,97907.47
2022-10-25T15:39:05.478Z,97914.91
2022-10-25T15:41:23.466Z,97914.47
2022-10-25T15:43:51.242Z,97913.66
2022-10-25T15:46:28.379Z,97916.28
2022-10-25T15:48:55.602Z,97910.06
2022-10-25T15:51:24.244Z,97913.34
2022-10-25T15:53:54.143Z,97913.06
2022-10-25T15:56:21.612Z,97912.75
2022-10-25T15:58:48.664Z,97910.63
2022-10-25T16:01:15.529Z,97911.09
2022-10-25T16:03:42.340Z,97918.63
2022-10-25T16:06:13.556Z,97922.56
2022-10-25T16:08:42.058Z,97916.81
2022-10-25T16:11:19.956Z,97916.16
2022-10-25T16:13:51.519Z,97924.50
2022-10-25T16:16:43.328Z,97915.97
2022-10-25T16:19:15.976Z,97914.47
2022-10-25T16:21:43.703Z,97926.47
2022-10-25T16:24:11.748Z,97925.50
2022-10-25T16:26:43.760Z,97928.81
2022-10-25T16:29:16.767Z,97921.09
2022-10-25T16:31:44.163Z,97925.66
2022-10-25T16:34:11.701Z,97922.09
2022-10-25T16:36:38.609Z,97922.63
2022-10-25T16:39:07.480Z,97920.84
2022-10-25T16:41:38.271Z,97933.78
2022-10-25T16:44:05.329Z,97929.19
2022-10-25T16:46:32.053Z,97937.88
2022-10-25T16:49:01.868Z,97937.84
2022-10-25T16:51:29.083Z,97937.69
2022-10-25T16:53:57.095Z,97941.81
2022-10-25T16:56:23.840Z,97936.38
2022-10-25T16:58:50.692Z,97936.94
2022-10-25T17:01:34.136Z,97938.69
2022-10-25T17:04:03.673Z,97938.50
2022-10-25T17:06:45.931Z,97943.28
2022-10-25T17:09:12.703Z,97941.91
2022-10-25T17:11:39.470Z,97941.59
2022-10-25T17:14:06.234Z,97944.16
2022-10-25T17:16:33.254Z,97952.66
2022-10-25T17:19:00.200Z,97942.72
2022-10-25T17:21:28.157Z,97944.34
2022-10-25T17:23:56.062Z,97940.56
2022-10-25T17:26:22.783Z,97953.88
2022-10-25T17:28:49.462Z,97945.34
2022-10-25T17:31:16.520Z,97946.81
2022-10-25T17:33:43.857Z,97954.34
2022-10-25T17:36:17.655Z,97953.88
2022-10-25T17:38:45.339Z,97942.03
2022-10-25T17:41:13.459Z,97946.78
2022-10-25T17:43:41.583Z,97947.88
2022-10-25T17:46:16.571Z,97943.75
2022-10-25T17:48:43.520Z,97935.56
2022-10-25T17:51:13.099Z,97942.09
2022-10-25T17:53:40.454Z,97944.13
2022-10-25T17:56:16.387Z,97931.97
2022-10-25T17:58:46.130Z,97946.22
2022-10-25T18:01:17.633Z,97938.75
2022-10-25T18:03:44.539Z,97946.81
2022-10-25T18:06:13.864Z,97949.00
2022-10-25T18:08:41.088Z,97949.72
2022-10-25T18:11:14.097Z,97948.44
2022-10-25T18:13:41.722Z,97951.41
2022-10-25T18:16:10.475Z,97953.31
2022-10-25T18:18:38.355Z,97950.25
2022-10-25T18:21:11.227Z,97947.16
2022-10-25T18:23:38.879Z,97949.88
2022-10-25T18:26:08.433Z,97944.66
2022-10-25T18:28:37.107Z,97942.31
2022-10-25T18:31:10.879Z,97952.28
2022-10-25T18:33:41.365Z,97946.72
2022-10-25T18:36:18.846Z,97948.03
2022-10-25T18:38:46.858Z,97949.56
2022-10-25T18:41:24.274Z,97943.16
2022-10-25T18:43:51.825Z,97941.53
2022-10-25T18:46:18.634Z,97940.81
2022-10-25T18:48:51.412Z,97940.22
2022-10-25T18:51:20.856Z,97932.66
2022-10-25T18:53:48.328Z,97938.22
2022-10-25T18:56:19.608Z,97925.44
2022-10-25T18:58:49.416Z,97930.75
2022-10-25T19:01:24.248Z,97930.31
2022-10-25T19:03:51.622Z,97927.09
2022-10-25T19:06:21.141Z,97930.97
2022-10-25T19:08:49.263Z,97927.28
2022-10-25T19:11:17.014Z,97926.81
2022-10-25T19:13:47.586Z,97931.31
2022-10-25T19:16:17.302Z,97928.22
2022-10-25T19:18:43.978Z,97924.09
2022-10-25T19:21:13.637Z,97926.09
2022-10-25T19:23:42.579Z,97926.34
2022-10-25T19:26:12.831Z,97922.09
2022-10-25T19:28:39.859Z,97921.47
2022-10-25T19:31:15.109Z,97936.38
2022-10-25T19:33:47.126Z,97918.38
2022-10-25T19:36:15.739Z,97912.81
2022-10-25T19:38:44.996Z,97913.88
2022-10-25T19:41:16.648Z,97908.06
2022-10-25T19:43:44.253Z,97917.06
2022-10-25T19:46:12.512Z,97923.53
2022-10-25T19:48:39.511Z,97925.56
2022-10-25T19:51:12.879Z,97925.66
2022-10-25T19:53:40.222Z,97922.56
2022-10-25T19:56:13.400Z,97913.22
2022-10-25T19:58:40.922Z,97908.97
2022-10-25T20:01:14.341Z,97911.56
2022-10-25T20:03:42.761Z,97901.63
2022-10-25T20:06:20.006Z,97906.31
2022-10-25T20:08:50.151Z,97902.06
2022-10-25T20:11:18.315Z,97897.09
2022-10-25T20:13:45.587Z,97900.66
2022-10-25T20:16:13.962Z,97901.72
2022-10-25T20:18:42.442Z,97904.44
2022-10-25T20:21:16.825Z,97904.50
2022-10-25T20:23:49.678Z,97901.09
2022-10-25T20:26:26.410Z,97915.25
2022-10-25T20:29:00.123Z,97925.78
2022-10-25T20:31:30.037Z,97915.50
2022-10-25T20:33:57.325Z,97926.31
2022-10-25T20:36:25.706Z,97922.41
2022-10-25T20:38:52.617Z,97920.88
2022-10-25T20:41:26.280Z,97923.69
2022-10-25T20:43:57.042Z,97921.41
2022-10-25T20:46:25.722Z,97930.97
2022-10-25T20:48:53.307Z,97917.28
2022-10-25T20:51:21.029Z,97927.66
2022-10-25T20:53:51.254Z,97922.47
2022-10-25T20:56:20.525Z,97920.09
2022-10-25T20:58:47.770Z,97919.47
2022-10-25T21:01:14.846Z,97919.59
2022-10-25T21:03:41.903Z,97925.00
2022-10-25T21:06:12.179Z,97920.03
2022-10-25T21:08:40.111Z,97918.59
2022-10-25T21:11:11.276Z,97925.66
2022-10-25T21:13:38.805Z,97917.97
2022-10-25T21:16:14.766Z,97920.03
2022-10-25T21:18:43.002Z,97918.63
2022-10-25T21:21:17.747Z,97912.78
2022-10-25T21:23:46.466Z,97917.97
2022-10-25T21:26:13.492Z,97912.78
2022-10-25T21:28:41.600Z,97904.41
2022-10-25T21:31:12.750Z,97912.63
2022-10-25T21:33:41.798Z,97911.06
2022-10-25T21:36:15.908Z,97916.38
2022-10-25T21:38:43.045Z,97904.44
2022-10-25T21:41:12.889Z,97905.38
2022-10-25T21:43:46.483Z,97908.91
2022-10-25T21:46:15.972Z,97903.00
2022-10-25T21:48:43.775Z,97914.22
2022-10-25T21:51:10.531Z,97903.94
2022-10-25T21:53:37.225Z,97898.75
2022-10-25T21:56:12.378Z,97901.44
2022-10-25T21:58:41.377Z,97889.50
2022-10-25T22:01:12.763Z,97897.28
2022-10-25T22:03:40.455Z,97889.72
2022-10-25T22:06:10.079Z,97887.13
2022-10-25T22:08:36.880Z,97888.16
2022-10-25T22:11:10.981Z,97886.41
2022-10-25T22:13:37.901Z,97877.06
2022-10-25T22:16:10.281Z,97875.31
2022-10-25T22:18:37.287Z,97882.16
2022-10-25T22:21:11.798Z,97868.34
2022-10-25T22:23:39.437Z,97877.91
2022-10-25T22:26:10.329Z,97873.66
2022-10-25T22:28:40.691Z,97877.19
2022-10-25T22:31:17.186Z,97878.00
2022-10-25T22:33:44.903Z,97882.38
2022-10-25T22:36:20.722Z,97882.38
2022-10-25T22:38:47.903Z,97872.81
2022-10-25T22:41:18.269Z,97874.59
2022-10-25T22:43:46.735Z,97872.00
2022-10-25T22:46:26.111Z,97873.88
2022-10-25T22:48:56.138Z,97870.53
2022-10-25T22:51:25.426Z,97870.53
2022-10-25T22:53:52.244Z,97878.31
2022-10-25T22:56:22.579Z,97868.88
2022-10-25T22:58:59.777Z,97868.03
2022-10-25T23:01:37.478Z,97872.50
2022-10-25T23:04:09.577Z,97873.34
2022-10-25T23:06:39.692Z,97883.00
2022-10-25T23:09:10.034Z,97878.63
2022-10-25T23:11:39.157Z,97883.84
2022-10-25T23:14:07.350Z,97877.81
2022-10-25T23:16:34.156Z,97871.91
2022-10-25T23:19:00.962Z,97874.72
2022-10-25T23:21:30.841Z,97871.38
2022-10-25T23:23:59.945Z,97874.09
2022-10-25T23:26:33.599Z,97873.38
2022-10-25T23:29:01.623Z,97877.00
2022-10-25T23:31:30.038Z,97866.63
2022-10-25T23:33:59.900Z,97873.59
2022-10-25T23:36:30.372Z,97872.75
2022-10-25T23:38:58.251Z,97873.81
2022-10-25T23:41:24.981Z,97871.31
2022-10-25T23:43:51.742Z,97869.75
2022-10-25T23:46:19.293Z,97875.97
2022-10-25T23:48:46.227Z,97867.38
2022-10-25T23:51:16.627Z,97872.66
2022-10-25T23:53:44.053Z,97869.34
2022-10-25T23:56:13.150Z,97864.47
2022-10-25T23:58:40.415Z,97859.38
